sensor_id;sensor_type;location;lat;lon;timestamp;P1;durP1;ratioP1;P2;durP2;ratioP2
27225;SDS011;14732;51.074;3.788;2023-12-28T00:00:42;8.40;;;3.60;;
27225;SDS011;14732;51.074;3.788;2023-12-28T00:03:08;5.57;;;3.15;;
27225;SDS011;14732;51.074;3.788;2023-12-28T00:05:33;8.45;;;3.22;;
27225;SDS011;14732;51.074;3.788;2023-12-28T00:07:59;5.18;;;3.00;;
27225;SDS011;14732;51.074;3.788;2023-12-28T00:10:25;5.40;;;3.30;;
27225;SDS011;14732;51.074;3.788;2023-12-28T00:12:52;4.88;;;2.80;;
27225;SDS011;14732;51.074;3.788;2023-12-28T00:15:18;7.53;;;3.15;;
27225;SDS011;14732;51.074;3.788;2023-12-28T00:17:44;7.45;;;3.33;;
27225;SDS011;14732;51.074;3.788;2023-12-28T00:20:10;4.47;;;3.10;;
27225;SDS011;14732;51.074;3.788;2023-12-28T00:22:36;5.63;;;3.40;;
27225;SDS011;14732;51.074;3.788;2023-12-28T00:25:03;4.53;;;3.00;;
27225;SDS011;14732;51.074;3.788;2023-12-28T00:27:29;4.95;;;3.10;;
27225;SDS011;14732;51.074;3.788;2023-12-28T00:29:55;7.57;;;3.10;;
27225;SDS011;14732;51.074;3.788;2023-12-28T00:32:20;6.70;;;3.65;;
27225;SDS011;14732;51.074;3.788;2023-12-28T00:34:46;4.22;;;3.13;;
27225;SDS011;14732;51.074;3.788;2023-12-28T00:37:11;4.88;;;2.95;;
27225;SDS011;14732;51.074;3.788;2023-12-28T00:39:37;8.30;;;3.90;;
27225;SDS011;14732;51.074;3.788;2023-12-28T00:42:04;4.47;;;2.80;;
27225;SDS011;14732;51.074;3.788;2023-12-28T00:44:30;6.85;;;3.40;;
27225;SDS011;14732;51.074;3.788;2023-12-28T00:46:55;8.43;;;3.20;;
27225;SDS011;14732;51.074;3.788;2023-12-28T00:49:21;6.32;;;3.10;;
27225;SDS011;14732;51.074;3.788;2023-12-28T00:51:46;4.40;;;2.97;;
27225;SDS011;14732;51.074;3.788;2023-12-28T00:54:12;4.68;;;2.65;;
27225;SDS011;14732;51.074;3.788;2023-12-28T00:56:38;5.03;;;3.05;;
27225;SDS011;14732;51.074;3.788;2023-12-28T00:59:03;6.65;;;2.97;;
27225;SDS011;14732;51.074;3.788;2023-12-28T01:01:29;6.63;;;2.58;;
27225;SDS011;14732;51.074;3.788;2023-12-28T01:03:57;4.93;;;2.67;;
27225;SDS011;14732;51.074;3.788;2023-12-28T01:06:23;6.25;;;3.00;;
27225;SDS011;14732;51.074;3.788;2023-12-28T01:08:53;7.05;;;3.05;;
27225;SDS011;14732;51.074;3.788;2023-12-28T01:11:19;8.25;;;3.15;;
27225;SDS011;14732;51.074;3.788;2023-12-28T01:13:45;6.38;;;2.90;;
27225;SDS011;14732;51.074;3.788;2023-12-28T01:16:12;6.38;;;2.75;;
27225;SDS011;14732;51.074;3.788;2023-12-28T01:18:38;6.13;;;2.92;;
27225;SDS011;14732;51.074;3.788;2023-12-28T01:21:04;7.63;;;2.70;;
27225;SDS011;14732;51.074;3.788;2023-12-28T01:23:31;6.90;;;3.30;;
27225;SDS011;14732;51.074;3.788;2023-12-28T01:25:56;4.72;;;3.10;;
27225;SDS011;14732;51.074;3.788;2023-12-28T01:28:22;5.18;;;3.30;;
27225;SDS011;14732;51.074;3.788;2023-12-28T01:30:48;5.50;;;3.40;;
27225;SDS011;14732;51.074;3.788;2023-12-28T01:33:14;6.32;;;3.55;;
27225;SDS011;14732;51.074;3.788;2023-12-28T01:35:40;5.07;;;3.00;;
27225;SDS011;14732;51.074;3.788;2023-12-28T01:38:07;5.45;;;3.50;;
27225;SDS011;14732;51.074;3.788;2023-12-28T01:40:32;8.75;;;3.65;;
27225;SDS011;14732;51.074;3.788;2023-12-28T01:42:58;7.43;;;3.35;;
27225;SDS011;14732;51.074;3.788;2023-12-28T01:45:23;8.10;;;2.97;;
27225;SDS011;14732;51.074;3.788;2023-12-28T01:47:49;6.97;;;3.25;;
27225;SDS011;14732;51.074;3.788;2023-12-28T01:50:17;5.53;;;3.00;;
27225;SDS011;14732;51.074;3.788;2023-12-28T01:52:44;5.07;;;3.25;;
27225;SDS011;14732;51.074;3.788;2023-12-28T01:55:10;8.38;;;3.40;;
27225;SDS011;14732;51.074;3.788;2023-12-28T01:57:36;5.00;;;3.40;;
27225;SDS011;14732;51.074;3.788;2023-12-28T02:00:03;5.60;;;3.65;;
27225;SDS011;14732;51.074;3.788;2023-12-28T02:02:30;8.43;;;3.08;;
27225;SDS011;14732;51.074;3.788;2023-12-28T02:04:57;4.47;;;3.33;;
27225;SDS011;14732;51.074;3.788;2023-12-28T02:07:23;6.03;;;3.40;;
27225;SDS011;14732;51.074;3.788;2023-12-28T02:09:50;4.82;;;2.90;;
27225;SDS011;14732;51.074;3.788;2023-12-28T02:12:16;5.93;;;3.20;;
27225;SDS011;14732;51.074;3.788;2023-12-28T02:14:41;6.15;;;2.95;;
27225;SDS011;14732;51.074;3.788;2023-12-28T02:17:10;7.13;;;3.35;;
27225;SDS011;14732;51.074;3.788;2023-12-28T02:19:46;7.00;;;3.03;;
27225;SDS011;14732;51.074;3.788;2023-12-28T02:22:21;9.38;;;3.40;;
27225;SDS011;14732;51.074;3.788;2023-12-28T02:25:00;9.30;;;3.08;;
27225;SDS011;14732;51.074;3.788;2023-12-28T02:27:26;6.03;;;3.13;;
27225;SDS011;14732;51.074;3.788;2023-12-28T02:29:51;5.22;;;2.83;;
27225;SDS011;14732;51.074;3.788;2023-12-28T02:32:19;6.03;;;2.90;;
27225;SDS011;14732;51.074;3.788;2023-12-28T02:34:53;5.30;;;2.75;;
27225;SDS011;14732;51.074;3.788;2023-12-28T02:37:24;6.03;;;2.58;;
27225;SDS011;14732;51.074;3.788;2023-12-28T02:39:52;5.80;;;2.70;;
27225;SDS011;14732;51.074;3.788;2023-12-28T02:42:19;3.35;;;2.30;;
27225;SDS011;14732;51.074;3.788;2023-12-28T02:44:44;5.35;;;2.67;;
27225;SDS011;14732;51.074;3.788;2023-12-28T02:47:10;7.38;;;2.50;;
27225;SDS011;14732;51.074;3.788;2023-12-28T02:49:36;5.60;;;2.47;;
27225;SDS011;14732;51.074;3.788;2023-12-28T02:52:01;7.72;;;2.47;;
27225;SDS011;14732;51.074;3.788;2023-12-28T02:54:27;6.63;;;2.58;;
27225;SDS011;14732;51.074;3.788;2023-12-28T02:56:53;5.20;;;3.10;;
27225;SDS011;14732;51.074;3.788;2023-12-28T02:59:19;7.15;;;3.03;;
27225;SDS011;14732;51.074;3.788;2023-12-28T03:01:44;8.48;;;2.78;;
27225;SDS011;14732;51.074;3.788;2023-12-28T03:04:10;6.05;;;2.50;;
27225;SDS011;14732;51.074;3.788;2023-12-28T03:06:36;6.60;;;2.58;;
27225;SDS011;14732;51.074;3.788;2023-12-28T03:09:03;4.90;;;2.75;;
27225;SDS011;14732;51.074;3.788;2023-12-28T03:11:30;6.93;;;2.80;;
27225;SDS011;14732;51.074;3.788;2023-12-28T03:13:55;6.50;;;2.53;;
27225;SDS011;14732;51.074;3.788;2023-12-28T03:16:21;7.78;;;2.50;;
27225;SDS011;14732;51.074;3.788;2023-12-28T03:18:46;5.72;;;2.92;;
27225;SDS011;14732;51.074;3.788;2023-12-28T03:21:12;6.03;;;2.58;;
27225;SDS011;14732;51.074;3.788;2023-12-28T03:23:38;6.38;;;2.65;;
27225;SDS011;14732;51.074;3.788;2023-12-28T03:26:03;6.38;;;2.47;;
27225;SDS011;14732;51.074;3.788;2023-12-28T03:28:29;9.50;;;2.70;;
27225;SDS011;14732;51.074;3.788;2023-12-28T03:30:55;7.60;;;2.30;;
27225;SDS011;14732;51.074;3.788;2023-12-28T03:33:21;10.40;;;2.90;;
27225;SDS011;14732;51.074;3.788;2023-12-28T03:35:47;6.35;;;2.42;;
27225;SDS011;14732;51.074;3.788;2023-12-28T03:38:16;8.63;;;2.78;;
27225;SDS011;14732;51.074;3.788;2023-12-28T03:40:41;7.32;;;2.60;;
27225;SDS011;14732;51.074;3.788;2023-12-28T03:43:07;7.95;;;2.33;;
27225;SDS011;14732;51.074;3.788;2023-12-28T03:45:32;8.40;;;2.47;;
27225;SDS011;14732;51.074;3.788;2023-12-28T03:47:58;5.63;;;2.40;;
27225;SDS011;14732;51.074;3.788;2023-12-28T03:50:24;6.70;;;2.25;;
27225;SDS011;14732;51.074;3.788;2023-12-28T03:52:51;8.52;;;2.42;;
27225;SDS011;14732;51.074;3.788;2023-12-28T03:55:16;12.93;;;2.72;;
27225;SDS011;14732;51.074;3.788;2023-12-28T03:57:42;7.40;;;2.17;;
27225;SDS011;14732;51.074;3.788;2023-12-28T04:00:08;7.80;;;2.38;;
27225;SDS011;14732;51.074;3.788;2023-12-28T04:02:33;12.70;;;3.03;;
27225;SDS011;14732;51.074;3.788;2023-12-28T04:04:59;7.40;;;2.08;;
27225;SDS011;14732;51.074;3.788;2023-12-28T04:07:25;7.75;;;2.47;;
27225;SDS011;14732;51.074;3.788;2023-12-28T04:09:50;6.97;;;2.08;;
27225;SDS011;14732;51.074;3.788;2023-12-28T04:12:16;12.63;;;2.25;;
27225;SDS011;14732;51.074;3.788;2023-12-28T04:14:41;14.32;;;2.33;;
27225;SDS011;14732;51.074;3.788;2023-12-28T04:17:07;9.48;;;1.98;;
27225;SDS011;14732;51.074;3.788;2023-12-28T04:19:33;9.27;;;2.30;;
27225;SDS011;14732;51.074;3.788;2023-12-28T04:21:58;9.93;;;2.28;;
27225;SDS011;14732;51.074;3.788;2023-12-28T04:24:24;6.75;;;2.30;;
27225;SDS011;14732;51.074;3.788;2023-12-28T04:26:49;6.32;;;2.28;;
27225;SDS011;14732;51.074;3.788;2023-12-28T04:29:15;6.60;;;1.88;;
27225;SDS011;14732;51.074;3.788;2023-12-28T04:31:41;8.95;;;1.98;;
27225;SDS011;14732;51.074;3.788;2023-12-28T04:34:10;7.95;;;2.00;;
27225;SDS011;14732;51.074;3.788;2023-12-28T04:36:42;10.70;;;2.20;;
27225;SDS011;14732;51.074;3.788;2023-12-28T04:39:09;12.32;;;2.00;;
27225;SDS011;14732;51.074;3.788;2023-12-28T04:41:35;12.38;;;2.33;;
27225;SDS011;14732;51.074;3.788;2023-12-28T04:44:01;12.63;;;2.33;;
27225;SDS011;14732;51.074;3.788;2023-12-28T04:46:26;7.28;;;2.10;;
27225;SDS011;14732;51.074;3.788;2023-12-28T04:48:52;8.00;;;2.28;;
27225;SDS011;14732;51.074;3.788;2023-12-28T04:51:17;13.20;;;2.58;;
27225;SDS011;14732;51.074;3.788;2023-12-28T04:53:43;11.05;;;2.58;;
27225;SDS011;14732;51.074;3.788;2023-12-28T04:56:09;7.90;;;1.98;;
27225;SDS011;14732;51.074;3.788;2023-12-28T04:58:35;14.50;;;2.08;;
27225;SDS011;14732;51.074;3.788;2023-12-28T05:01:03;8.65;;;1.77;;
27225;SDS011;14732;51.074;3.788;2023-12-28T05:03:29;9.68;;;2.83;;
27225;SDS011;14732;51.074;3.788;2023-12-28T05:05:54;8.65;;;2.65;;
27225;SDS011;14732;51.074;3.788;2023-12-28T05:08:20;9.63;;;1.85;;
27225;SDS011;14732;51.074;3.788;2023-12-28T05:10:46;17.55;;;2.00;;
27225;SDS011;14732;51.074;3.788;2023-12-28T05:13:11;16.00;;;2.47;;
27225;SDS011;14732;51.074;3.788;2023-12-28T05:15:37;11.35;;;2.13;;
27225;SDS011;14732;51.074;3.788;2023-12-28T05:18:02;10.23;;;2.25;;
27225;SDS011;14732;51.074;3.788;2023-12-28T05:20:29;11.90;;;2.35;;
27225;SDS011;14732;51.074;3.788;2023-12-28T05:22:54;10.90;;;2.30;;
27225;SDS011;14732;51.074;3.788;2023-12-28T05:25:20;11.52;;;2.45;;
27225;SDS011;14732;51.074;3.788;2023-12-28T05:27:46;9.02;;;2.10;;
27225;SDS011;14732;51.074;3.788;2023-12-28T05:30:12;14.73;;;2.20;;
27225;SDS011;14732;51.074;3.788;2023-12-28T05:32:37;8.68;;;2.20;;
27225;SDS011;14732;51.074;3.788;2023-12-28T05:35:03;10.27;;;2.05;;
27225;SDS011;14732;51.074;3.788;2023-12-28T05:37:29;18.73;;;2.55;;
27225;SDS011;14732;51.074;3.788;2023-12-28T05:39:55;12.05;;;2.10;;
27225;SDS011;14732;51.074;3.788;2023-12-28T05:42:20;15.57;;;3.00;;
27225;SDS011;14732;51.074;3.788;2023-12-28T05:44:46;11.90;;;2.05;;
27225;SDS011;14732;51.074;3.788;2023-12-28T05:47:12;17.65;;;2.35;;
27225;SDS011;14732;51.074;3.788;2023-12-28T05:49:37;15.90;;;2.38;;
27225;SDS011;14732;51.074;3.788;2023-12-28T05:52:03;10.23;;;1.83;;
27225;SDS011;14732;51.074;3.788;2023-12-28T05:54:29;13.18;;;1.90;;
27225;SDS011;14732;51.074;3.788;2023-12-28T05:56:55;18.67;;;2.45;;
27225;SDS011;14732;51.074;3.788;2023-12-28T05:59:20;11.48;;;1.75;;
27225;SDS011;14732;51.074;3.788;2023-12-28T06:01:47;10.40;;;2.05;;
27225;SDS011;14732;51.074;3.788;2023-12-28T06:04:13;17.55;;;2.10;;
27225;SDS011;14732;51.074;3.788;2023-12-28T06:06:38;11.13;;;2.17;;
27225;SDS011;14732;51.074;3.788;2023-12-28T06:09:04;11.88;;;2.35;;
27225;SDS011;14732;51.074;3.788;2023-12-28T06:11:30;11.75;;;2.40;;
27225;SDS011;14732;51.074;3.788;2023-12-28T06:13:56;12.35;;;2.15;;
27225;SDS011;14732;51.074;3.788;2023-12-28T06:16:22;14.38;;;2.47;;
27225;SDS011;14732;51.074;3.788;2023-12-28T06:18:48;13.02;;;2.33;;
27225;SDS011;14732;51.074;3.788;2023-12-28T06:21:13;16.45;;;2.03;;
27225;SDS011;14732;51.074;3.788;2023-12-28T06:23:39;21.65;;;2.63;;
27225;SDS011;14732;51.074;3.788;2023-12-28T06:26:06;19.20;;;2.80;;
27225;SDS011;14732;51.074;3.788;2023-12-28T06:28:31;13.32;;;2.03;;
27225;SDS011;14732;51.074;3.788;2023-12-28T06:30:57;14.15;;;1.90;;
27225;SDS011;14732;51.074;3.788;2023-12-28T06:33:26;16.05;;;2.40;;
27225;SDS011;14732;51.074;3.788;2023-12-28T06:35:54;16.10;;;2.30;;
27225;SDS011;14732;51.074;3.788;2023-12-28T06:38:22;16.33;;;2.58;;
27225;SDS011;14732;51.074;3.788;2023-12-28T06:40:48;12.07;;;2.42;;
27225;SDS011;14732;51.074;3.788;2023-12-28T06:43:13;16.92;;;2.40;;
27225;SDS011;14732;51.074;3.788;2023-12-28T06:45:40;17.00;;;2.90;;
27225;SDS011;14732;51.074;3.788;2023-12-28T06:48:06;12.38;;;2.22;;
27225;SDS011;14732;51.074;3.788;2023-12-28T06:50:31;11.68;;;2.08;;
27225;SDS011;14732;51.074;3.788;2023-12-28T06:52:57;13.43;;;2.50;;
27225;SDS011;14732;51.074;3.788;2023-12-28T06:55:23;14.63;;;2.10;;
27225;SDS011;14732;51.074;3.788;2023-12-28T06:57:48;20.42;;;2.88;;
27225;SDS011;14732;51.074;3.788;2023-12-28T07:00:14;22.10;;;2.47;;
27225;SDS011;14732;51.074;3.788;2023-12-28T07:02:40;12.38;;;2.15;;
27225;SDS011;14732;51.074;3.788;2023-12-28T07:05:06;12.40;;;2.13;;
27225;SDS011;14732;51.074;3.788;2023-12-28T07:07:33;16.98;;;2.25;;
27225;SDS011;14732;51.074;3.788;2023-12-28T07:09:58;13.50;;;2.20;;
27225;SDS011;14732;51.074;3.788;2023-12-28T07:12:24;18.80;;;2.55;;
27225;SDS011;14732;51.074;3.788;2023-12-28T07:14:50;16.23;;;2.33;;
27225;SDS011;14732;51.074;3.788;2023-12-28T07:17:15;15.15;;;2.72;;
27225;SDS011;14732;51.074;3.788;2023-12-28T07:19:42;21.98;;;2.70;;
27225;SDS011;14732;51.074;3.788;2023-12-28T07:22:08;13.70;;;2.08;;
27225;SDS011;14732;51.074;3.788;2023-12-28T07:24:34;11.73;;;2.00;;
27225;SDS011;14732;51.074;3.788;2023-12-28T07:27:00;14.88;;;2.45;;
27225;SDS011;14732;51.074;3.788;2023-12-28T07:29:25;14.85;;;2.20;;
27225;SDS011;14732;51.074;3.788;2023-12-28T07:31:51;15.32;;;2.58;;
27225;SDS011;14732;51.074;3.788;2023-12-28T07:34:18;13.02;;;2.03;;
27225;SDS011;14732;51.074;3.788;2023-12-28T07:36:44;15.00;;;1.95;;
27225;SDS011;14732;51.074;3.788;2023-12-28T07:39:10;21.52;;;2.75;;
27225;SDS011;14732;51.074;3.788;2023-12-28T07:41:36;14.15;;;2.08;;
27225;SDS011;14732;51.074;3.788;2023-12-28T07:44:01;13.30;;;2.05;;
27225;SDS011;14732;51.074;3.788;2023-12-28T07:46:27;18.52;;;2.50;;
27225;SDS011;14732;51.074;3.788;2023-12-28T07:48:52;20.45;;;2.47;;
27225;SDS011;14732;51.074;3.788;2023-12-28T07:51:18;12.30;;;2.00;;
27225;SDS011;14732;51.074;3.788;2023-12-28T07:53:44;21.23;;;2.75;;
27225;SDS011;14732;51.074;3.788;2023-12-28T07:56:09;19.17;;;2.60;;
27225;SDS011;14732;51.074;3.788;2023-12-28T07:58:35;19.55;;;2.50;;
27225;SDS011;14732;51.074;3.788;2023-12-28T08:01:02;19.63;;;2.83;;
27225;SDS011;14732;51.074;3.788;2023-12-28T08:03:28;17.50;;;2.47;;
27225;SDS011;14732;51.074;3.788;2023-12-28T08:05:54;18.52;;;2.70;;
27225;SDS011;14732;51.074;3.788;2023-12-28T08:08:20;15.30;;;2.55;;
27225;SDS011;14732;51.074;3.788;2023-12-28T08:10:45;14.65;;;2.42;;
27225;SDS011;14732;51.074;3.788;2023-12-28T08:13:11;19.27;;;2.65;;
27225;SDS011;14732;51.074;3.788;2023-12-28T08:15:37;20.45;;;3.10;;
27225;SDS011;14732;51.074;3.788;2023-12-28T08:18:02;15.50;;;2.75;;
27225;SDS011;14732;51.074;3.788;2023-12-28T08:20:29;14.98;;;2.40;;
27225;SDS011;14732;51.074;3.788;2023-12-28T08:22:54;15.60;;;2.40;;
27225;SDS011;14732;51.074;3.788;2023-12-28T08:25:20;16.65;;;2.50;;
27225;SDS011;14732;51.074;3.788;2023-12-28T08:27:46;18.77;;;2.63;;
27225;SDS011;14732;51.074;3.788;2023-12-28T08:30:12;18.35;;;2.35;;
27225;SDS011;14732;51.074;3.788;2023-12-28T08:32:38;18.55;;;2.42;;
27225;SDS011;14732;51.074;3.788;2023-12-28T08:35:04;12.57;;;2.03;;
27225;SDS011;14732;51.074;3.788;2023-12-28T08:37:30;15.55;;;2.25;;
27225;SDS011;14732;51.074;3.788;2023-12-28T08:39:56;18.23;;;2.30;;
27225;SDS011;14732;51.074;3.788;2023-12-28T08:42:22;20.65;;;2.60;;
27225;SDS011;14732;51.074;3.788;2023-12-28T08:44:49;21.90;;;2.70;;
27225;SDS011;14732;51.074;3.788;2023-12-28T08:47:15;21.77;;;2.47;;
27225;SDS011;14732;51.074;3.788;2023-12-28T08:49:41;22.95;;;2.25;;
27225;SDS011;14732;51.074;3.788;2023-12-28T08:52:06;18.63;;;3.03;;
27225;SDS011;14732;51.074;3.788;2023-12-28T08:54:32;12.95;;;2.00;;
27225;SDS011;14732;51.074;3.788;2023-12-28T08:56:57;21.10;;;3.10;;
27225;SDS011;14732;51.074;3.788;2023-12-28T08:59:23;16.50;;;2.47;;
27225;SDS011;14732;51.074;3.788;2023-12-28T09:01:51;15.82;;;2.55;;
27225;SDS011;14732;51.074;3.788;2023-12-28T09:06:44;16.98;;;2.40;;
27225;SDS011;14732;51.074;3.788;2023-12-28T09:09:09;24.48;;;3.10;;
27225;SDS011;14732;51.074;3.788;2023-12-28T09:11:35;18.70;;;2.42;;
27225;SDS011;14732;51.074;3.788;2023-12-28T09:14:01;15.63;;;2.30;;
27225;SDS011;14732;51.074;3.788;2023-12-28T09:16:26;15.18;;;2.15;;
27225;SDS011;14732;51.074;3.788;2023-12-28T09:18:53;16.75;;;2.75;;
27225;SDS011;14732;51.074;3.788;2023-12-28T09:21:19;15.45;;;2.50;;
27225;SDS011;14732;51.074;3.788;2023-12-28T09:23:45;20.05;;;2.90;;
27225;SDS011;14732;51.074;3.788;2023-12-28T09:26:11;25.42;;;2.97;;
27225;SDS011;14732;51.074;3.788;2023-12-28T09:28:37;21.23;;;3.03;;
27225;SDS011;14732;51.074;3.788;2023-12-28T09:31:03;17.15;;;2.28;;
27225;SDS011;14732;51.074;3.788;2023-12-28T09:33:29;22.05;;;2.88;;
27225;SDS011;14732;51.074;3.788;2023-12-28T09:35:54;20.42;;;2.50;;
27225;SDS011;14732;51.074;3.788;2023-12-28T09:38:21;17.33;;;3.00;;
27225;SDS011;14732;51.074;3.788;2023-12-28T09:40:48;22.00;;;2.92;;
27225;SDS011;14732;51.074;3.788;2023-12-28T09:43:24;19.85;;;2.50;;
27225;SDS011;14732;51.074;3.788;2023-12-28T09:45:51;18.83;;;2.75;;
27225;SDS011;14732;51.074;3.788;2023-12-28T09:48:17;22.27;;;3.53;;
27225;SDS011;14732;51.074;3.788;2023-12-28T09:53:24;20.17;;;2.55;;
27225;SDS011;14732;51.074;3.788;2023-12-28T09:55:50;18.17;;;2.80;;
27225;SDS011;14732;51.074;3.788;2023-12-28T09:58:17;25.42;;;2.85;;
27225;SDS011;14732;51.074;3.788;2023-12-28T10:00:47;21.23;;;3.10;;
27225;SDS011;14732;51.074;3.788;2023-12-28T10:03:14;19.30;;;2.70;;
27225;SDS011;14732;51.074;3.788;2023-12-28T10:05:41;25.98;;;3.15;;
27225;SDS011;14732;51.074;3.788;2023-12-28T10:08:07;23.13;;;2.22;;
27225;SDS011;14732;51.074;3.788;2023-12-28T10:10:33;25.20;;;3.42;;
27225;SDS011;14732;51.074;3.788;2023-12-28T10:12:59;22.42;;;2.83;;
27225;SDS011;14732;51.074;3.788;2023-12-28T10:15:25;29.48;;;3.40;;
27225;SDS011;14732;51.074;3.788;2023-12-28T10:17:51;13.90;;;2.28;;
27225;SDS011;14732;51.074;3.788;2023-12-28T10:20:17;16.58;;;2.03;;
27225;SDS011;14732;51.074;3.788;2023-12-28T10:22:43;19.33;;;2.75;;
27225;SDS011;14732;51.074;3.788;2023-12-28T10:25:09;18.17;;;2.75;;
27225;SDS011;14732;51.074;3.788;2023-12-28T10:27:39;15.80;;;2.47;;
27225;SDS011;14732;51.074;3.788;2023-12-28T10:30:08;20.80;;;2.92;;
27225;SDS011;14732;51.074;3.788;2023-12-28T10:32:40;15.83;;;2.50;;
27225;SDS011;14732;51.074;3.788;2023-12-28T10:35:06;17.83;;;2.47;;
27225;SDS011;14732;51.074;3.788;2023-12-28T10:37:32;15.80;;;3.13;;
27225;SDS011;14732;51.074;3.788;2023-12-28T10:40:00;21.23;;;2.75;;
27225;SDS011;14732;51.074;3.788;2023-12-28T10:42:31;22.15;;;2.38;;
27225;SDS011;14732;51.074;3.788;2023-12-28T10:45:04;21.27;;;3.08;;
27225;SDS011;14732;51.074;3.788;2023-12-28T10:47:37;25.13;;;3.53;;
27225;SDS011;14732;51.074;3.788;2023-12-28T10:50:06;22.25;;;2.58;;
27225;SDS011;14732;51.074;3.788;2023-12-28T10:52:33;18.92;;;2.90;;
27225;SDS011;14732;51.074;3.788;2023-12-28T10:57:58;17.75;;;2.78;;
27225;SDS011;14732;51.074;3.788;2023-12-28T11:00:38;18.48;;;3.15;;
27225;SDS011;14732;51.074;3.788;2023-12-28T11:03:11;21.08;;;3.13;;
27225;SDS011;14732;51.074;3.788;2023-12-28T11:05:43;17.30;;;2.58;;
27225;SDS011;14732;51.074;3.788;2023-12-28T11:08:12;12.05;;;2.67;;
27225;SDS011;14732;51.074;3.788;2023-12-28T11:10:39;22.15;;;3.08;;
27225;SDS011;14732;51.074;3.788;2023-12-28T11:13:06;21.13;;;3.13;;
27225;SDS011;14732;51.074;3.788;2023-12-28T11:15:34;26.60;;;3.60;;
27225;SDS011;14732;51.074;3.788;2023-12-28T11:18:01;19.52;;;2.45;;
27225;SDS011;14732;51.074;3.788;2023-12-28T11:20:27;23.10;;;3.17;;
27225;SDS011;14732;51.074;3.788;2023-12-28T11:22:54;20.98;;;3.13;;
27225;SDS011;14732;51.074;3.788;2023-12-28T11:25:21;15.38;;;3.20;;
27225;SDS011;14732;51.074;3.788;2023-12-28T11:27:47;23.48;;;3.20;;
27225;SDS011;14732;51.074;3.788;2023-12-28T11:30:13;28.33;;;3.50;;
27225;SDS011;14732;51.074;3.788;2023-12-28T11:32:42;21.35;;;3.20;;
27225;SDS011;14732;51.074;3.788;2023-12-28T11:35:10;19.48;;;2.95;;
27225;SDS011;14732;51.074;3.788;2023-12-28T11:37:40;21.70;;;2.83;;
27225;SDS011;14732;51.074;3.788;2023-12-28T11:40:13;18.45;;;2.72;;
27225;SDS011;14732;51.074;3.788;2023-12-28T11:42:51;27.38;;;3.97;;
27225;SDS011;14732;51.074;3.788;2023-12-28T11:45:18;25.23;;;2.88;;
27225;SDS011;14732;51.074;3.788;2023-12-28T11:47:45;28.15;;;4.00;;
27225;SDS011;14732;51.074;3.788;2023-12-28T11:50:11;22.40;;;2.90;;
27225;SDS011;14732;51.074;3.788;2023-12-28T11:52:37;20.85;;;2.83;;
27225;SDS011;14732;51.074;3.788;2023-12-28T11:55:03;19.98;;;2.83;;
27225;SDS011;14732;51.074;3.788;2023-12-28T11:57:30;22.90;;;3.17;;
27225;SDS011;14732;51.074;3.788;2023-12-28T11:59:59;17.52;;;2.63;;
27225;SDS011;14732;51.074;3.788;2023-12-28T12:02:26;14.20;;;2.33;;
27225;SDS011;14732;51.074;3.788;2023-12-28T12:04:53;25.30;;;3.38;;
27225;SDS011;14732;51.074;3.788;2023-12-28T12:07:19;25.67;;;3.30;;
27225;SDS011;14732;51.074;3.788;2023-12-28T12:09:45;23.17;;;3.20;;
27225;SDS011;14732;51.074;3.788;2023-12-28T12:12:11;26.30;;;3.67;;
27225;SDS011;14732;51.074;3.788;2023-12-28T12:14:36;16.42;;;2.58;;
27225;SDS011;14732;51.074;3.788;2023-12-28T12:17:02;18.98;;;2.53;;
27225;SDS011;14732;51.074;3.788;2023-12-28T12:19:28;23.73;;;3.20;;
27225;SDS011;14732;51.074;3.788;2023-12-28T12:21:55;19.60;;;2.78;;
27225;SDS011;14732;51.074;3.788;2023-12-28T12:24:21;17.33;;;2.60;;
27225;SDS011;14732;51.074;3.788;2023-12-28T12:26:48;17.40;;;2.28;;
27225;SDS011;14732;51.074;3.788;2023-12-28T12:29:15;23.27;;;3.47;;
27225;SDS011;14732;51.074;3.788;2023-12-28T12:31:41;20.70;;;2.58;;
27225;SDS011;14732;51.074;3.788;2023-12-28T12:34:10;22.33;;;3.30;;
27225;SDS011;14732;51.074;3.788;2023-12-28T12:39:03;17.33;;;2.30;;
27225;SDS011;14732;51.074;3.788;2023-12-28T12:41:33;22.95;;;3.05;;
27225;SDS011;14732;51.074;3.788;2023-12-28T12:43:59;15.52;;;2.47;;
27225;SDS011;14732;51.074;3.788;2023-12-28T12:46:25;16.00;;;2.78;;
27225;SDS011;14732;51.074;3.788;2023-12-28T12:48:58;19.90;;;2.70;;
27225;SDS011;14732;51.074;3.788;2023-12-28T12:51:25;21.05;;;2.70;;
27225;SDS011;14732;51.074;3.788;2023-12-28T12:53:58;22.40;;;3.00;;
27225;SDS011;14732;51.074;3.788;2023-12-28T12:56:27;19.00;;;3.03;;
27225;SDS011;14732;51.074;3.788;2023-12-28T12:58:53;14.70;;;2.60;;
27225;SDS011;14732;51.074;3.788;2023-12-28T13:01:20;16.70;;;2.42;;
27225;SDS011;14732;51.074;3.788;2023-12-28T13:03:46;20.15;;;3.08;;
27225;SDS011;14732;51.074;3.788;2023-12-28T13:06:12;17.90;;;2.65;;
27225;SDS011;14732;51.074;3.788;2023-12-28T13:08:38;17.48;;;2.67;;
27225;SDS011;14732;51.074;3.788;2023-12-28T13:11:04;21.27;;;2.72;;
27225;SDS011;14732;51.074;3.788;2023-12-28T13:13:32;18.58;;;2.78;;
27225;SDS011;14732;51.074;3.788;2023-12-28T13:15:58;23.23;;;2.40;;
27225;SDS011;14732;51.074;3.788;2023-12-28T13:18:23;19.67;;;2.72;;
27225;SDS011;14732;51.074;3.788;2023-12-28T13:20:49;16.70;;;2.72;;
27225;SDS011;14732;51.074;3.788;2023-12-28T13:23:15;16.70;;;2.70;;
27225;SDS011;14732;51.074;3.788;2023-12-28T13:25:41;15.57;;;2.25;;
27225;SDS011;14732;51.074;3.788;2023-12-28T13:28:08;18.40;;;2.67;;
27225;SDS011;14732;51.074;3.788;2023-12-28T13:30:34;24.15;;;3.65;;
27225;SDS011;14732;51.074;3.788;2023-12-28T13:33:01;20.65;;;3.15;;
27225;SDS011;14732;51.074;3.788;2023-12-28T13:35:28;19.25;;;3.53;;
27225;SDS011;14732;51.074;3.788;2023-12-28T13:37:53;21.42;;;3.38;;
27225;SDS011;14732;51.074;3.788;2023-12-28T13:40:19;23.90;;;3.60;;
27225;SDS011;14732;51.074;3.788;2023-12-28T13:42:45;15.73;;;2.40;;
27225;SDS011;14732;51.074;3.788;2023-12-28T13:45:11;17.70;;;2.45;;
27225;SDS011;14732;51.074;3.788;2023-12-28T13:47:37;15.80;;;3.10;;
27225;SDS011;14732;51.074;3.788;2023-12-28T13:50:03;16.08;;;2.83;;
27225;SDS011;14732;51.074;3.788;2023-12-28T13:52:29;24.52;;;3.55;;
27225;SDS011;14732;51.074;3.788;2023-12-28T13:54:55;23.80;;;3.40;;
27225;SDS011;14732;51.074;3.788;2023-12-28T13:57:21;17.92;;;2.63;;
27225;SDS011;14732;51.074;3.788;2023-12-28T13:59:46;16.67;;;2.50;;
27225;SDS011;14732;51.074;3.788;2023-12-28T14:02:12;22.65;;;3.38;;
27225;SDS011;14732;51.074;3.788;2023-12-28T14:04:38;18.60;;;2.60;;
27225;SDS011;14732;51.074;3.788;2023-12-28T14:07:04;18.88;;;3.00;;
27225;SDS011;14732;51.074;3.788;2023-12-28T14:09:29;18.48;;;2.67;;
27225;SDS011;14732;51.074;3.788;2023-12-28T14:11:56;18.17;;;2.75;;
27225;SDS011;14732;51.074;3.788;2023-12-28T14:14:22;20.17;;;2.88;;
27225;SDS011;14732;51.074;3.788;2023-12-28T14:16:48;13.10;;;2.65;;
27225;SDS011;14732;51.074;3.788;2023-12-28T14:19:13;18.70;;;2.58;;
27225;SDS011;14732;51.074;3.788;2023-12-28T14:21:39;15.60;;;2.47;;
27225;SDS011;14732;51.074;3.788;2023-12-28T14:24:05;16.90;;;2.35;;
27225;SDS011;14732;51.074;3.788;2023-12-28T14:26:32;19.83;;;2.78;;
27225;SDS011;14732;51.074;3.788;2023-12-28T14:29:01;22.50;;;3.10;;
27225;SDS011;14732;51.074;3.788;2023-12-28T14:31:31;18.60;;;2.78;;
27225;SDS011;14732;51.074;3.788;2023-12-28T14:33:57;15.73;;;2.67;;
27225;SDS011;14732;51.074;3.788;2023-12-28T14:36:27;17.42;;;2.45;;
27225;SDS011;14732;51.074;3.788;2023-12-28T14:39:03;15.63;;;2.70;;
27225;SDS011;14732;51.074;3.788;2023-12-28T14:41:30;19.88;;;2.80;;
27225;SDS011;14732;51.074;3.788;2023-12-28T14:43:57;20.42;;;2.67;;